Impacts METAR Board
IDs:

KOSH - Oshkosh/Wittman Rgnl, WI, US

Updated at: 0600 UTC 22 Oct 2021
Potential Impact None Slight Moderate High
Time 21/18Z 21/19Z 21/20Z 21/21Z 21/22Z 21/23Z 22/00Z 22/01Z 22/02Z 22/03Z 22/04Z 22/05Z 22/06Z
Temp48 48 48 49 50 47 44 44 38 38 40 39 38
Dewpt44 43 42 40 39 36 35 34 34 34 34 33 32
Altim29.92 29.94 29.95 29.97 29.99 30.01 30.04 30.04 30.05 30.06 30.06 30.06 30.06
VIS10 10 10 10 10 10 10 10 10 10 10 10 10
CIG13 48 22 27 -- -- -- -- -- -- -- -- --
CoverOVCOVCOVCBKNCLRCLRCLRCLRCLRCLRCLRCLRCLR
FltCatMVFRVFRMVFRMVFRVFRVFRVFRVFRVFRVFRVFRVFRVFR
WX--------------------------
WDir3603503403403303503303302700320350340
WSpd11 12 13 10 5 9 6 3 3 0 5 8 6
WGst-- -- 20 -- -- -- -- -- -- -- -- -- --
Raw hourly METARs
KOSH 211800Z 36011KT 10SM SCT007 BKN013 OVC020 09/07 A2992 RMK AO2 RAE1757 P0000 T00890067
KOSH 211853Z 35012KT 10SM FEW021 SCT027 OVC048 09/06 A2994 RMK AO2 RAE1757 SLP138 P0001 T00890061
KOSH 212000Z 34013G20KT 10SM BKN022 BKN028 OVC060 09/06 A2995 RMK AO2 T00890056
KOSH 212053Z 34010KT 10SM BKN027 09/04 A2997 RMK AO2 SLP147 60001 T00940044 51015
KOSH 212153Z 33005KT 10SM CLR 10/04 A2999 RMK AO2 SLP155 T01000039
KOSH 212253Z 35009KT 10SM CLR 08/02 A3001 RMK AO2 SLP164 T00830022
KOSH 212353Z 33006KT 10SM CLR 07/02 A3004 RMK AO2 SLP174 60001 T00670017 10100 20067 53023
KOSH 220053Z 33003KT 10SM CLR 07/01 A3004 RMK AO2 SLP176 T00670011
KOSH 220153Z 27003KT 10SM CLR 03/01 A3005 RMK AO2 SLP183 T00330011
KOSH 220253Z 00000KT 10SM CLR 03/01 A3006 RMK AO2 SLP187 T00330011 53009
KOSH 220353Z AUTO 32005KT 10SM CLR 04/01 A3006 RMK AO2 SLP186 T00440011
KOSH 220453Z AUTO 35008KT 10SM CLR 04/01 A3006 RMK AO2 SLP185 T00390006
KOSH 220553Z AUTO 34006KT 10SM CLR 03/00 A3006 RMK AO2 SLP187 T00330000 10072 20028 401500028 58000



Page loaded:  06:40 UTC  |   11:40 PM Pacific  |   12:40 AM Mountain  |   01:40 AM Central  |   02:40 AM Eastern

 

ADVISORIES

FORECASTS

FORECASTS

OBSERVATIONS

USER TOOLS

ABOUT US